sensor_id;sensor_type;location;lat;lon;timestamp;P1;durP1;ratioP1;P2;durP2;ratioP2
79687;SDS011;69155;49.464;2.108;2024-01-16T00:01:41;27.80;;;10.75;;
79687;SDS011;69155;49.464;2.108;2024-01-16T00:06:38;25.30;;;10.50;;
79687;SDS011;69155;49.464;2.108;2024-01-16T00:09:03;31.35;;;14.02;;
79687;SDS011;69155;49.464;2.108;2024-01-16T00:11:30;28.25;;;12.77;;
79687;SDS011;69155;49.464;2.108;2024-01-16T00:13:55;16.57;;;10.40;;
79687;SDS011;69155;49.464;2.108;2024-01-16T00:16:20;25.00;;;12.70;;
79687;SDS011;69155;49.464;2.108;2024-01-16T00:18:46;23.17;;;12.37;;
79687;SDS011;69155;49.464;2.108;2024-01-16T00:21:11;52.83;;;23.50;;
79687;SDS011;69155;49.464;2.108;2024-01-16T00:23:36;50.00;;;21.67;;
79687;SDS011;69155;49.464;2.108;2024-01-16T00:26:01;31.63;;;15.10;;
79687;SDS011;69155;49.464;2.108;2024-01-16T00:28:27;16.60;;;9.82;;
79687;SDS011;69155;49.464;2.108;2024-01-16T00:30:52;15.60;;;8.17;;
79687;SDS011;69155;49.464;2.108;2024-01-16T00:33:17;17.00;;;6.17;;
79687;SDS011;69155;49.464;2.108;2024-01-16T00:35:43;22.23;;;9.53;;
79687;SDS011;69155;49.464;2.108;2024-01-16T00:38:08;22.35;;;8.30;;
79687;SDS011;69155;49.464;2.108;2024-01-16T00:40:33;25.13;;;9.03;;
79687;SDS011;69155;49.464;2.108;2024-01-16T00:42:59;17.30;;;7.85;;
79687;SDS011;69155;49.464;2.108;2024-01-16T00:45:27;18.23;;;7.60;;
79687;SDS011;69155;49.464;2.108;2024-01-16T00:47:55;17.42;;;9.35;;
79687;SDS011;69155;49.464;2.108;2024-01-16T00:50:21;13.65;;;8.25;;
79687;SDS011;69155;49.464;2.108;2024-01-16T00:52:47;23.48;;;9.57;;
79687;SDS011;69155;49.464;2.108;2024-01-16T00:55:12;28.63;;;11.77;;
79687;SDS011;69155;49.464;2.108;2024-01-16T00:57:37;15.23;;;10.53;;
79687;SDS011;69155;49.464;2.108;2024-01-16T01:00:02;19.97;;;11.60;;
79687;SDS011;69155;49.464;2.108;2024-01-16T01:02:32;21.30;;;11.77;;
79687;SDS011;69155;49.464;2.108;2024-01-16T01:04:57;21.15;;;12.40;;
79687;SDS011;69155;49.464;2.108;2024-01-16T01:07:22;19.13;;;10.13;;
79687;SDS011;69155;49.464;2.108;2024-01-16T01:09:47;17.53;;;11.20;;
79687;SDS011;69155;49.464;2.108;2024-01-16T01:12:12;19.47;;;9.60;;
79687;SDS011;69155;49.464;2.108;2024-01-16T01:14:38;13.37;;;8.77;;
79687;SDS011;69155;49.464;2.108;2024-01-16T01:17:03;20.87;;;9.77;;
79687;SDS011;69155;49.464;2.108;2024-01-16T01:19:28;20.63;;;9.37;;
79687;SDS011;69155;49.464;2.108;2024-01-16T01:21:53;17.13;;;8.60;;
79687;SDS011;69155;49.464;2.108;2024-01-16T01:24:19;20.97;;;9.07;;
79687;SDS011;69155;49.464;2.108;2024-01-16T01:26:44;16.63;;;9.70;;
79687;SDS011;69155;49.464;2.108;2024-01-16T01:29:09;17.93;;;9.60;;
79687;SDS011;69155;49.464;2.108;2024-01-16T01:31:35;18.88;;;10.43;;
79687;SDS011;69155;49.464;2.108;2024-01-16T01:34:00;60.83;;;18.97;;
79687;SDS011;69155;49.464;2.108;2024-01-16T01:36:25;66.87;;;20.67;;
79687;SDS011;69155;49.464;2.108;2024-01-16T01:38:50;80.83;;;26.73;;
79687;SDS011;69155;49.464;2.108;2024-01-16T01:41:15;52.47;;;19.87;;
79687;SDS011;69155;49.464;2.108;2024-01-16T01:43:41;64.53;;;21.20;;
79687;SDS011;69155;49.464;2.108;2024-01-16T01:48:36;38.13;;;13.20;;
79687;SDS011;69155;49.464;2.108;2024-01-16T01:51:02;22.10;;;11.73;;
79687;SDS011;69155;49.464;2.108;2024-01-16T01:53:28;28.17;;;12.13;;
79687;SDS011;69155;49.464;2.108;2024-01-16T01:55:53;26.67;;;11.90;;
79687;SDS011;69155;49.464;2.108;2024-01-16T01:58:19;29.63;;;11.80;;
79687;SDS011;69155;49.464;2.108;2024-01-16T02:00:44;37.63;;;12.40;;
79687;SDS011;69155;49.464;2.108;2024-01-16T02:03:10;23.00;;;9.90;;
79687;SDS011;69155;49.464;2.108;2024-01-16T02:05:35;17.40;;;10.50;;
79687;SDS011;69155;49.464;2.108;2024-01-16T02:08:01;26.38;;;10.77;;
79687;SDS011;69155;49.464;2.108;2024-01-16T02:10:27;22.20;;;10.90;;
79687;SDS011;69155;49.464;2.108;2024-01-16T02:12:52;30.20;;;11.57;;
79687;SDS011;69155;49.464;2.108;2024-01-16T02:15:17;27.43;;;13.33;;
79687;SDS011;69155;49.464;2.108;2024-01-16T02:17:43;21.27;;;11.30;;
79687;SDS011;69155;49.464;2.108;2024-01-16T02:20:08;25.77;;;11.37;;
79687;SDS011;69155;49.464;2.108;2024-01-16T02:22:34;21.27;;;10.40;;
79687;SDS011;69155;49.464;2.108;2024-01-16T02:25:00;27.55;;;10.95;;
79687;SDS011;69155;49.464;2.108;2024-01-16T02:27:26;19.03;;;9.03;;
79687;SDS011;69155;49.464;2.108;2024-01-16T02:29:51;15.90;;;7.77;;
79687;SDS011;69155;49.464;2.108;2024-01-16T02:32:16;16.80;;;8.57;;
79687;SDS011;69155;49.464;2.108;2024-01-16T02:34:45;21.38;;;9.55;;
79687;SDS011;69155;49.464;2.108;2024-01-16T02:37:10;22.05;;;9.65;;
79687;SDS011;69155;49.464;2.108;2024-01-16T02:39:35;11.57;;;7.60;;
79687;SDS011;69155;49.464;2.108;2024-01-16T02:42:01;17.37;;;8.67;;
79687;SDS011;69155;49.464;2.108;2024-01-16T02:44:26;13.77;;;7.57;;
79687;SDS011;69155;49.464;2.108;2024-01-16T02:46:54;12.83;;;8.33;;
79687;SDS011;69155;49.464;2.108;2024-01-16T02:49:20;18.80;;;7.90;;
79687;SDS011;69155;49.464;2.108;2024-01-16T02:51:45;16.47;;;7.50;;
79687;SDS011;69155;49.464;2.108;2024-01-16T02:54:10;13.97;;;7.77;;
79687;SDS011;69155;49.464;2.108;2024-01-16T02:56:37;11.18;;;6.57;;
79687;SDS011;69155;49.464;2.108;2024-01-16T02:59:02;16.70;;;7.73;;
79687;SDS011;69155;49.464;2.108;2024-01-16T03:01:27;13.50;;;7.20;;
79687;SDS011;69155;49.464;2.108;2024-01-16T03:03:52;15.23;;;7.53;;
79687;SDS011;69155;49.464;2.108;2024-01-16T03:06:21;14.10;;;8.47;;
79687;SDS011;69155;49.464;2.108;2024-01-16T03:08:47;18.63;;;7.97;;
79687;SDS011;69155;49.464;2.108;2024-01-16T03:11:12;15.33;;;9.13;;
79687;SDS011;69155;49.464;2.108;2024-01-16T03:13:37;22.40;;;8.80;;
79687;SDS011;69155;49.464;2.108;2024-01-16T03:16:06;15.40;;;7.20;;
79687;SDS011;69155;49.464;2.108;2024-01-16T03:18:31;17.15;;;8.70;;
79687;SDS011;69155;49.464;2.108;2024-01-16T03:20:59;18.13;;;7.53;;
79687;SDS011;69155;49.464;2.108;2024-01-16T03:23:25;16.90;;;7.50;;
79687;SDS011;69155;49.464;2.108;2024-01-16T03:25:50;13.67;;;8.30;;
79687;SDS011;69155;49.464;2.108;2024-01-16T03:28:15;15.02;;;7.47;;
79687;SDS011;69155;49.464;2.108;2024-01-16T03:30:40;20.47;;;8.60;;
79687;SDS011;69155;49.464;2.108;2024-01-16T03:33:13;10.63;;;5.83;;
79687;SDS011;69155;49.464;2.108;2024-01-16T03:35:44;12.13;;;7.45;;
79687;SDS011;69155;49.464;2.108;2024-01-16T03:38:15;18.03;;;8.10;;
79687;SDS011;69155;49.464;2.108;2024-01-16T03:43:08;20.05;;;10.07;;
79687;SDS011;69155;49.464;2.108;2024-01-16T03:45:34;14.02;;;9.25;;
79687;SDS011;69155;49.464;2.108;2024-01-16T03:47:59;21.27;;;9.50;;
79687;SDS011;69155;49.464;2.108;2024-01-16T03:50:24;20.00;;;9.37;;
79687;SDS011;69155;49.464;2.108;2024-01-16T03:52:49;26.43;;;12.33;;
79687;SDS011;69155;49.464;2.108;2024-01-16T03:55:15;21.87;;;11.33;;
79687;SDS011;69155;49.464;2.108;2024-01-16T03:57:40;20.47;;;9.03;;
79687;SDS011;69155;49.464;2.108;2024-01-16T04:00:05;23.43;;;10.00;;
79687;SDS011;69155;49.464;2.108;2024-01-16T04:02:31;18.48;;;10.70;;
79687;SDS011;69155;49.464;2.108;2024-01-16T04:04:57;21.33;;;10.38;;
79687;SDS011;69155;49.464;2.108;2024-01-16T04:07:22;20.30;;;9.33;;
79687;SDS011;69155;49.464;2.108;2024-01-16T04:09:48;29.88;;;10.48;;
79687;SDS011;69155;49.464;2.108;2024-01-16T04:12:13;12.70;;;8.03;;
79687;SDS011;69155;49.464;2.108;2024-01-16T04:14:39;14.20;;;8.90;;
79687;SDS011;69155;49.464;2.108;2024-01-16T04:17:05;16.13;;;8.77;;
79687;SDS011;69155;49.464;2.108;2024-01-16T04:19:30;16.83;;;8.90;;
79687;SDS011;69155;49.464;2.108;2024-01-16T04:21:58;16.90;;;7.63;;
79687;SDS011;69155;49.464;2.108;2024-01-16T04:24:23;11.87;;;8.67;;
79687;SDS011;69155;49.464;2.108;2024-01-16T04:26:51;16.75;;;7.68;;
79687;SDS011;69155;49.464;2.108;2024-01-16T04:29:16;13.17;;;8.53;;
79687;SDS011;69155;49.464;2.108;2024-01-16T04:31:42;17.10;;;8.20;;
79687;SDS011;69155;49.464;2.108;2024-01-16T04:34:07;16.10;;;7.55;;
79687;SDS011;69155;49.464;2.108;2024-01-16T04:36:35;18.88;;;8.88;;
79687;SDS011;69155;49.464;2.108;2024-01-16T04:39:00;15.77;;;8.50;;
79687;SDS011;69155;49.464;2.108;2024-01-16T04:41:25;16.73;;;9.60;;
79687;SDS011;69155;49.464;2.108;2024-01-16T04:43:51;12.87;;;7.83;;
79687;SDS011;69155;49.464;2.108;2024-01-16T04:46:16;15.37;;;8.23;;
79687;SDS011;69155;49.464;2.108;2024-01-16T04:48:44;13.52;;;8.05;;
79687;SDS011;69155;49.464;2.108;2024-01-16T04:51:10;14.32;;;7.78;;
79687;SDS011;69155;49.464;2.108;2024-01-16T04:53:38;16.77;;;8.07;;
79687;SDS011;69155;49.464;2.108;2024-01-16T04:56:04;17.50;;;8.45;;
79687;SDS011;69155;49.464;2.108;2024-01-16T04:58:29;13.38;;;7.32;;
79687;SDS011;69155;49.464;2.108;2024-01-16T05:01:03;21.00;;;11.93;;
79687;SDS011;69155;49.464;2.108;2024-01-16T05:03:29;14.50;;;8.65;;
79687;SDS011;69155;49.464;2.108;2024-01-16T05:05:54;14.57;;;8.63;;
79687;SDS011;69155;49.464;2.108;2024-01-16T05:08:20;14.20;;;9.02;;
79687;SDS011;69155;49.464;2.108;2024-01-16T05:10:46;16.85;;;9.77;;
79687;SDS011;69155;49.464;2.108;2024-01-16T05:13:12;14.55;;;8.25;;
79687;SDS011;69155;49.464;2.108;2024-01-16T05:15:37;13.40;;;8.13;;
79687;SDS011;69155;49.464;2.108;2024-01-16T05:18:03;13.97;;;6.97;;
79687;SDS011;69155;49.464;2.108;2024-01-16T05:20:28;17.80;;;8.50;;
79687;SDS011;69155;49.464;2.108;2024-01-16T05:22:54;12.27;;;7.63;;
79687;SDS011;69155;49.464;2.108;2024-01-16T05:25:19;15.57;;;7.47;;
79687;SDS011;69155;49.464;2.108;2024-01-16T05:27:46;12.02;;;7.25;;
79687;SDS011;69155;49.464;2.108;2024-01-16T05:30:11;14.30;;;7.63;;
79687;SDS011;69155;49.464;2.108;2024-01-16T05:32:37;10.20;;;7.90;;
79687;SDS011;69155;49.464;2.108;2024-01-16T05:35:04;12.20;;;7.90;;
79687;SDS011;69155;49.464;2.108;2024-01-16T05:37:29;10.52;;;6.82;;
79687;SDS011;69155;49.464;2.108;2024-01-16T05:39:55;13.03;;;8.60;;
79687;SDS011;69155;49.464;2.108;2024-01-16T05:42:20;13.07;;;8.67;;
79687;SDS011;69155;49.464;2.108;2024-01-16T05:44:45;15.77;;;8.47;;
79687;SDS011;69155;49.464;2.108;2024-01-16T05:47:11;13.23;;;8.30;;
79687;SDS011;69155;49.464;2.108;2024-01-16T05:49:36;13.95;;;8.68;;
79687;SDS011;69155;49.464;2.108;2024-01-16T05:52:19;11.02;;;6.70;;
79687;SDS011;69155;49.464;2.108;2024-01-16T05:54:44;11.77;;;8.47;;
79687;SDS011;69155;49.464;2.108;2024-01-16T05:57:09;19.40;;;11.20;;
79687;SDS011;69155;49.464;2.108;2024-01-16T05:59:34;15.23;;;9.53;;
79687;SDS011;69155;49.464;2.108;2024-01-16T06:02:00;20.90;;;8.73;;
79687;SDS011;69155;49.464;2.108;2024-01-16T06:04:25;16.70;;;10.83;;
79687;SDS011;69155;49.464;2.108;2024-01-16T06:06:50;16.33;;;8.43;;
79687;SDS011;69155;49.464;2.108;2024-01-16T06:09:18;15.52;;;8.38;;
79687;SDS011;69155;49.464;2.108;2024-01-16T06:11:44;17.77;;;8.27;;
79687;SDS011;69155;49.464;2.108;2024-01-16T06:14:09;15.33;;;7.80;;
79687;SDS011;69155;49.464;2.108;2024-01-16T06:16:35;21.85;;;8.32;;
79687;SDS011;69155;49.464;2.108;2024-01-16T06:19:03;17.80;;;10.85;;
79687;SDS011;69155;49.464;2.108;2024-01-16T06:21:29;24.63;;;12.60;;
79687;SDS011;69155;49.464;2.108;2024-01-16T06:23:55;25.73;;;12.15;;
79687;SDS011;69155;49.464;2.108;2024-01-16T06:26:21;24.70;;;12.75;;
79687;SDS011;69155;49.464;2.108;2024-01-16T06:28:47;16.60;;;9.60;;
79687;SDS011;69155;49.464;2.108;2024-01-16T06:31:12;29.57;;;14.30;;
79687;SDS011;69155;49.464;2.108;2024-01-16T06:33:38;66.67;;;22.50;;
79687;SDS011;69155;49.464;2.108;2024-01-16T06:36:03;87.63;;;29.63;;
79687;SDS011;69155;49.464;2.108;2024-01-16T06:38:31;56.47;;;23.88;;
79687;SDS011;69155;49.464;2.108;2024-01-16T06:40:57;39.50;;;15.73;;
79687;SDS011;69155;49.464;2.108;2024-01-16T06:43:25;24.98;;;12.07;;
79687;SDS011;69155;49.464;2.108;2024-01-16T06:45:50;19.27;;;10.57;;
79687;SDS011;69155;49.464;2.108;2024-01-16T06:48:15;16.13;;;8.98;;
79687;SDS011;69155;49.464;2.108;2024-01-16T06:50:41;19.93;;;8.23;;
79687;SDS011;69155;49.464;2.108;2024-01-16T06:53:06;14.57;;;9.27;;
79687;SDS011;69155;49.464;2.108;2024-01-16T06:55:31;19.67;;;8.43;;
79687;SDS011;69155;49.464;2.108;2024-01-16T06:57:57;11.43;;;7.97;;
79687;SDS011;69155;49.464;2.108;2024-01-16T07:06:34;15.25;;;7.95;;
79687;SDS011;69155;49.464;2.108;2024-01-16T07:09:20;15.90;;;8.63;;
79687;SDS011;69155;49.464;2.108;2024-01-16T07:14:44;21.77;;;9.05;;
79687;SDS011;69155;49.464;2.108;2024-01-16T07:17:17;17.77;;;9.80;;
79687;SDS011;69155;49.464;2.108;2024-01-16T07:19:42;17.38;;;8.98;;
79687;SDS011;69155;49.464;2.108;2024-01-16T07:22:15;18.97;;;8.67;;
79687;SDS011;69155;49.464;2.108;2024-01-16T07:24:43;16.17;;;9.60;;
79687;SDS011;69155;49.464;2.108;2024-01-16T07:27:09;20.57;;;9.57;;
79687;SDS011;69155;49.464;2.108;2024-01-16T07:29:34;14.50;;;9.03;;
79687;SDS011;69155;49.464;2.108;2024-01-16T07:31:59;24.53;;;8.67;;
79687;SDS011;69155;49.464;2.108;2024-01-16T07:34:24;14.97;;;7.83;;
79687;SDS011;69155;49.464;2.108;2024-01-16T07:36:50;18.23;;;9.93;;
79687;SDS011;69155;49.464;2.108;2024-01-16T07:39:16;24.10;;;12.75;;
79687;SDS011;69155;49.464;2.108;2024-01-16T07:41:44;24.20;;;13.03;;
79687;SDS011;69155;49.464;2.108;2024-01-16T07:44:09;21.48;;;9.90;;
79687;SDS011;69155;49.464;2.108;2024-01-16T07:46:34;23.57;;;14.20;;
79687;SDS011;69155;49.464;2.108;2024-01-16T07:49:00;26.03;;;15.47;;
79687;SDS011;69155;49.464;2.108;2024-01-16T07:51:25;36.75;;;17.92;;
79687;SDS011;69155;49.464;2.108;2024-01-16T07:53:51;35.73;;;18.17;;
79687;SDS011;69155;49.464;2.108;2024-01-16T07:56:17;32.95;;;17.30;;
79687;SDS011;69155;49.464;2.108;2024-01-16T07:58:42;26.23;;;15.83;;
79687;SDS011;69155;49.464;2.108;2024-01-16T08:01:07;30.53;;;15.30;;
79687;SDS011;69155;49.464;2.108;2024-01-16T08:03:32;34.93;;;20.07;;
79687;SDS011;69155;49.464;2.108;2024-01-16T08:06:01;39.50;;;21.07;;
79687;SDS011;69155;49.464;2.108;2024-01-16T08:08:26;32.97;;;15.75;;
79687;SDS011;69155;49.464;2.108;2024-01-16T08:10:51;29.70;;;15.52;;
79687;SDS011;69155;49.464;2.108;2024-01-16T08:13:17;36.97;;;18.60;;
79687;SDS011;69155;49.464;2.108;2024-01-16T08:15:42;42.10;;;21.67;;
79687;SDS011;69155;49.464;2.108;2024-01-16T08:18:07;38.40;;;18.37;;
79687;SDS011;69155;49.464;2.108;2024-01-16T08:20:35;40.40;;;19.20;;
79687;SDS011;69155;49.464;2.108;2024-01-16T08:23:01;35.67;;;19.27;;
79687;SDS011;69155;49.464;2.108;2024-01-16T08:25:26;33.23;;;18.13;;
79687;SDS011;69155;49.464;2.108;2024-01-16T08:27:51;20.63;;;13.83;;
79687;SDS011;69155;49.464;2.108;2024-01-16T08:30:16;24.17;;;14.43;;
79687;SDS011;69155;49.464;2.108;2024-01-16T08:32:41;21.63;;;13.57;;
79687;SDS011;69155;49.464;2.108;2024-01-16T08:35:07;22.77;;;14.90;;
79687;SDS011;69155;49.464;2.108;2024-01-16T08:37:33;24.30;;;15.52;;
79687;SDS011;69155;49.464;2.108;2024-01-16T08:39:59;25.67;;;13.05;;
79687;SDS011;69155;49.464;2.108;2024-01-16T08:42:24;28.77;;;14.87;;
79687;SDS011;69155;49.464;2.108;2024-01-16T08:44:49;22.53;;;12.87;;
79687;SDS011;69155;49.464;2.108;2024-01-16T08:47:15;35.23;;;14.23;;
79687;SDS011;69155;49.464;2.108;2024-01-16T08:49:40;22.63;;;12.50;;
79687;SDS011;69155;49.464;2.108;2024-01-16T08:52:05;27.17;;;12.73;;
79687;SDS011;69155;49.464;2.108;2024-01-16T08:54:31;20.65;;;11.57;;
79687;SDS011;69155;49.464;2.108;2024-01-16T08:57:05;17.38;;;11.00;;
79687;SDS011;69155;49.464;2.108;2024-01-16T08:59:30;26.30;;;11.73;;
79687;SDS011;69155;49.464;2.108;2024-01-16T09:01:59;25.13;;;13.25;;
79687;SDS011;69155;49.464;2.108;2024-01-16T09:04:24;24.52;;;13.48;;
79687;SDS011;69155;49.464;2.108;2024-01-16T09:06:49;21.30;;;11.93;;
79687;SDS011;69155;49.464;2.108;2024-01-16T09:09:15;20.35;;;13.02;;
79687;SDS011;69155;49.464;2.108;2024-01-16T09:11:41;21.17;;;11.07;;
79687;SDS011;69155;49.464;2.108;2024-01-16T09:14:06;26.17;;;13.27;;
79687;SDS011;69155;49.464;2.108;2024-01-16T09:16:33;21.05;;;10.98;;
79687;SDS011;69155;49.464;2.108;2024-01-16T09:18:59;22.70;;;13.10;;
79687;SDS011;69155;49.464;2.108;2024-01-16T09:21:24;23.57;;;13.10;;
79687;SDS011;69155;49.464;2.108;2024-01-16T09:23:50;19.23;;;9.93;;
79687;SDS011;69155;49.464;2.108;2024-01-16T09:26:15;17.70;;;10.15;;
79687;SDS011;69155;49.464;2.108;2024-01-16T09:28:42;19.33;;;11.48;;
79687;SDS011;69155;49.464;2.108;2024-01-16T09:31:07;21.17;;;11.48;;
79687;SDS011;69155;49.464;2.108;2024-01-16T09:33:33;22.13;;;11.60;;
79687;SDS011;69155;49.464;2.108;2024-01-16T09:35:58;17.90;;;10.65;;
79687;SDS011;69155;49.464;2.108;2024-01-16T09:38:24;19.97;;;11.93;;
79687;SDS011;69155;49.464;2.108;2024-01-16T09:40:49;23.07;;;11.70;;
79687;SDS011;69155;49.464;2.108;2024-01-16T09:43:15;23.88;;;12.45;;
79687;SDS011;69155;49.464;2.108;2024-01-16T09:45:41;30.33;;;15.13;;
79687;SDS011;69155;49.464;2.108;2024-01-16T09:48:06;24.37;;;12.47;;
79687;SDS011;69155;49.464;2.108;2024-01-16T09:50:33;112.30;;;16.77;;
79687;SDS011;69155;49.464;2.108;2024-01-16T09:52:58;22.87;;;13.73;;
79687;SDS011;69155;49.464;2.108;2024-01-16T09:55:23;40.03;;;14.50;;
79687;SDS011;69155;49.464;2.108;2024-01-16T09:57:50;25.35;;;14.27;;
79687;SDS011;69155;49.464;2.108;2024-01-16T10:00:19;37.28;;;14.82;;
79687;SDS011;69155;49.464;2.108;2024-01-16T10:02:45;23.27;;;11.98;;
79687;SDS011;69155;49.464;2.108;2024-01-16T10:05:11;21.23;;;11.23;;
79687;SDS011;69155;49.464;2.108;2024-01-16T10:07:37;21.95;;;11.82;;
79687;SDS011;69155;49.464;2.108;2024-01-16T10:10:03;24.83;;;12.63;;
79687;SDS011;69155;49.464;2.108;2024-01-16T10:12:28;22.25;;;12.73;;
79687;SDS011;69155;49.464;2.108;2024-01-16T10:14:53;35.90;;;12.17;;
79687;SDS011;69155;49.464;2.108;2024-01-16T10:17:18;36.10;;;15.50;;
79687;SDS011;69155;49.464;2.108;2024-01-16T10:19:48;24.58;;;14.38;;
79687;SDS011;69155;49.464;2.108;2024-01-16T10:22:20;30.27;;;14.43;;
79687;SDS011;69155;49.464;2.108;2024-01-16T10:24:46;25.80;;;14.18;;
79687;SDS011;69155;49.464;2.108;2024-01-16T10:27:11;29.87;;;14.90;;
79687;SDS011;69155;49.464;2.108;2024-01-16T10:29:45;21.73;;;14.13;;
79687;SDS011;69155;49.464;2.108;2024-01-16T10:32:28;32.47;;;14.95;;
79687;SDS011;69155;49.464;2.108;2024-01-16T10:35:16;25.20;;;14.30;;
79687;SDS011;69155;49.464;2.108;2024-01-16T10:37:49;29.05;;;13.60;;
79687;SDS011;69155;49.464;2.108;2024-01-16T10:40:21;23.65;;;14.45;;
79687;SDS011;69155;49.464;2.108;2024-01-16T10:42:56;21.52;;;12.52;;
79687;SDS011;69155;49.464;2.108;2024-01-16T10:45:22;19.23;;;11.77;;
79687;SDS011;69155;49.464;2.108;2024-01-16T10:47:48;45.03;;;13.10;;
79687;SDS011;69155;49.464;2.108;2024-01-16T10:50:13;22.13;;;12.82;;
79687;SDS011;69155;49.464;2.108;2024-01-16T10:52:45;21.67;;;12.13;;
79687;SDS011;69155;49.464;2.108;2024-01-16T10:55:11;48.38;;;12.50;;
79687;SDS011;69155;49.464;2.108;2024-01-16T10:57:38;215.30;;;18.52;;
79687;SDS011;69155;49.464;2.108;2024-01-16T11:00:05;30.42;;;10.93;;
79687;SDS011;69155;49.464;2.108;2024-01-16T11:02:43;24.92;;;11.52;;
79687;SDS011;69155;49.464;2.108;2024-01-16T11:05:10;18.70;;;11.40;;
79687;SDS011;69155;49.464;2.108;2024-01-16T11:07:36;26.15;;;12.60;;
79687;SDS011;69155;49.464;2.108;2024-01-16T11:10:02;19.25;;;11.55;;
79687;SDS011;69155;49.464;2.108;2024-01-16T11:12:28;44.00;;;12.95;;
79687;SDS011;69155;49.464;2.108;2024-01-16T11:14:54;23.25;;;12.13;;
79687;SDS011;69155;49.464;2.108;2024-01-16T11:17:20;21.45;;;11.40;;
79687;SDS011;69155;49.464;2.108;2024-01-16T11:19:46;18.77;;;11.05;;
79687;SDS011;69155;49.464;2.108;2024-01-16T11:22:12;22.85;;;11.15;;
79687;SDS011;69155;49.464;2.108;2024-01-16T11:24:37;19.85;;;11.82;;
79687;SDS011;69155;49.464;2.108;2024-01-16T11:27:03;20.60;;;11.07;;
79687;SDS011;69155;49.464;2.108;2024-01-16T11:31:54;24.30;;;10.07;;
79687;SDS011;69155;49.464;2.108;2024-01-16T11:37:05;20.60;;;9.88;;
79687;SDS011;69155;49.464;2.108;2024-01-16T11:39:31;18.17;;;10.38;;
79687;SDS011;69155;49.464;2.108;2024-01-16T11:41:57;12.77;;;7.20;;
79687;SDS011;69155;49.464;2.108;2024-01-16T11:47:21;7.90;;;4.22;;
79687;SDS011;69155;49.464;2.108;2024-01-16T11:49:47;7.55;;;3.60;;
79687;SDS011;69155;49.464;2.108;2024-01-16T11:52:12;5.78;;;3.53;;
79687;SDS011;69155;49.464;2.108;2024-01-16T11:54:41;5.72;;;3.78;;
79687;SDS011;69155;49.464;2.108;2024-01-16T11:59:57;5.55;;;3.33;;
79687;SDS011;69155;49.464;2.108;2024-01-16T12:02:26;8.88;;;4.60;;
79687;SDS011;69155;49.464;2.108;2024-01-16T12:04:53;9.70;;;4.72;;
79687;SDS011;69155;49.464;2.108;2024-01-16T12:07:28;8.25;;;4.20;;
79687;SDS011;69155;49.464;2.108;2024-01-16T12:09:58;5.88;;;3.92;;
79687;SDS011;69155;49.464;2.108;2024-01-16T12:12:23;6.50;;;3.95;;
79687;SDS011;69155;49.464;2.108;2024-01-16T12:14:52;8.00;;;4.30;;
79687;SDS011;69155;49.464;2.108;2024-01-16T12:17:20;6.38;;;3.72;;
79687;SDS011;69155;49.464;2.108;2024-01-16T12:19:45;7.77;;;4.20;;
79687;SDS011;69155;49.464;2.108;2024-01-16T12:22:14;6.07;;;3.42;;
79687;SDS011;69155;49.464;2.108;2024-01-16T12:24:40;6.88;;;3.80;;
79687;SDS011;69155;49.464;2.108;2024-01-16T12:27:05;4.32;;;2.80;;
79687;SDS011;69155;49.464;2.108;2024-01-16T12:29:34;8.20;;;4.07;;
79687;SDS011;69155;49.464;2.108;2024-01-16T12:32:32;5.43;;;3.33;;
79687;SDS011;69155;49.464;2.108;2024-01-16T12:34:52;7.60;;;3.05;;
79687;SDS011;69155;49.464;2.108;2024-01-16T12:37:17;8.98;;;2.30;;
79687;SDS011;69155;49.464;2.108;2024-01-16T12:39:42;9.07;;;3.63;;
79687;SDS011;69155;49.464;2.108;2024-01-16T12:42:09;4.05;;;2.53;;
79687;SDS011;69155;49.464;2.108;2024-01-16T12:44:35;4.40;;;2.65;;
79687;SDS011;69155;49.464;2.108;2024-01-16T12:47:01;4.72;;;2.90;;
79687;SDS011;69155;49.464;2.108;2024-01-16T12:49:29;2.83;;;2.15;;
79687;SDS011;69155;49.464;2.108;2024-01-16T12:54:38;5.18;;;2.50;;
79687;SDS011;69155;49.464;2.108;2024-01-16T12:57:04;4.77;;;1.77;;
79687;SDS011;69155;49.464;2.108;2024-01-16T12:59:30;2.38;;;1.98;;
79687;SDS011;69155;49.464;2.108;2024-01-16T13:01:56;2.10;;;1.87;;
79687;SDS011;69155;49.464;2.108;2024-01-16T13:04:21;3.93;;;1.90;;
79687;SDS011;69155;49.464;2.108;2024-01-16T13:06:49;4.07;;;2.00;;
79687;SDS011;69155;49.464;2.108;2024-01-16T13:09:14;6.15;;;1.77;;
79687;SDS011;69155;49.464;2.108;2024-01-16T13:14:15;3.65;;;1.83;;
79687;SDS011;69155;49.464;2.108;2024-01-16T13:16:40;6.43;;;1.93;;
79687;SDS011;69155;49.464;2.108;2024-01-16T13:19:06;7.17;;;2.20;;
79687;SDS011;69155;49.464;2.108;2024-01-16T13:21:34;14.00;;;2.50;;
79687;SDS011;69155;49.464;2.108;2024-01-16T13:24:00;3.80;;;2.10;;
79687;SDS011;69155;49.464;2.108;2024-01-16T13:26:25;2.00;;;1.70;;
79687;SDS011;69155;49.464;2.108;2024-01-16T13:28:50;3.23;;;1.87;;
79687;SDS011;69155;49.464;2.108;2024-01-16T13:31:15;8.30;;;1.53;;
79687;SDS011;69155;49.464;2.108;2024-01-16T13:33:41;4.25;;;1.88;;
79687;SDS011;69155;49.464;2.108;2024-01-16T13:36:06;2.63;;;1.53;;
79687;SDS011;69155;49.464;2.108;2024-01-16T13:38:34;4.40;;;2.10;;
79687;SDS011;69155;49.464;2.108;2024-01-16T13:40:59;10.47;;;2.70;;
79687;SDS011;69155;49.464;2.108;2024-01-16T13:43:24;3.03;;;1.83;;
79687;SDS011;69155;49.464;2.108;2024-01-16T13:45:49;3.63;;;1.70;;
79687;SDS011;69155;49.464;2.108;2024-01-16T13:48:17;3.47;;;2.43;;
79687;SDS011;69155;49.464;2.108;2024-01-16T13:50:42;4.28;;;2.28;;
79687;SDS011;69155;49.464;2.108;2024-01-16T13:53:08;10.67;;;2.70;;
79687;SDS011;69155;49.464;2.108;2024-01-16T13:55:33;2.70;;;1.80;;
79687;SDS011;69155;49.464;2.108;2024-01-16T13:57:58;5.00;;;1.90;;
79687;SDS011;69155;49.464;2.108;2024-01-16T14:00:23;7.17;;;2.70;;
79687;SDS011;69155;49.464;2.108;2024-01-16T14:02:49;9.43;;;3.63;;
79687;SDS011;69155;49.464;2.108;2024-01-16T14:05:15;4.97;;;2.10;;
79687;SDS011;69155;49.464;2.108;2024-01-16T14:07:43;5.60;;;2.58;;
79687;SDS011;69155;49.464;2.108;2024-01-16T14:10:11;3.47;;;1.90;;
79687;SDS011;69155;49.464;2.108;2024-01-16T14:12:37;3.58;;;1.75;;
79687;SDS011;69155;49.464;2.108;2024-01-16T14:15:06;4.30;;;1.95;;
79687;SDS011;69155;49.464;2.108;2024-01-16T14:17:40;4.95;;;2.00;;
79687;SDS011;69155;49.464;2.108;2024-01-16T14:20:06;3.83;;;2.20;;
79687;SDS011;69155;49.464;2.108;2024-01-16T14:22:32;4.30;;;2.00;;
79687;SDS011;69155;49.464;2.108;2024-01-16T14:24:57;6.97;;;2.70;;
79687;SDS011;69155;49.464;2.108;2024-01-16T14:27:22;6.80;;;2.10;;
79687;SDS011;69155;49.464;2.108;2024-01-16T14:29:52;19.38;;;2.88;;
79687;SDS011;69155;49.464;2.108;2024-01-16T14:32:17;9.60;;;2.88;;
79687;SDS011;69155;49.464;2.108;2024-01-16T14:34:45;7.67;;;2.43;;
79687;SDS011;69155;49.464;2.108;2024-01-16T14:37:10;5.53;;;2.60;;
79687;SDS011;69155;49.464;2.108;2024-01-16T14:39:36;7.38;;;2.92;;
79687;SDS011;69155;49.464;2.108;2024-01-16T14:42:02;5.57;;;2.43;;
79687;SDS011;69155;49.464;2.108;2024-01-16T14:44:27;5.18;;;2.50;;
79687;SDS011;69155;49.464;2.108;2024-01-16T14:46:53;7.37;;;2.93;;
79687;SDS011;69155;49.464;2.108;2024-01-16T14:49:19;6.93;;;2.78;;
79687;SDS011;69155;49.464;2.108;2024-01-16T14:51:44;6.15;;;3.13;;
79687;SDS011;69155;49.464;2.108;2024-01-16T14:54:09;3.63;;;2.10;;
79687;SDS011;69155;49.464;2.108;2024-01-16T14:56:34;3.23;;;2.23;;
79687;SDS011;69155;49.464;2.108;2024-01-16T14:59:00;7.60;;;2.77;;